Time;durP1;ratioP1;P1;durP2;ratioP2;P2;SDS_P1;SDS_P2;PMS_P1;PMS_P2;Temp;Humidity;BMP_temperature;BMP_pressure;BME280_temperature;BME280_humidity;BME280_pressure;Samples;Min_cycle;Max_cycle;Signal;HPM_P1;HPM_P2
2021/09/15 00:01:11;;;;;;;7.80;5.73;;;21.90;81.20;;;;;;5031701;28;20622;-77
2021/09/15 00:03:37;;;;;;;9.33;5.60;;;21.90;81.40;;;;;;5036585;28;20201;-76
2021/09/15 00:06:04;;;;;;;8.33;5.70;;;21.80;81.40;;;;;;5034094;28;20212;-76
2021/09/15 00:08:31;;;;;;;9.63;6.00;;;21.80;81.40;;;;;;5031522;28;20184;-76
2021/09/15 00:10:56;;;;;;;7.43;5.30;;;21.80;81.40;;;;;;5030619;28;20522;-77
2021/09/15 00:13:22;;;;;;;7.53;5.40;;;21.90;81.20;;;;;;5030567;28;20526;-78
2021/09/15 00:15:48;;;;;;;9.53;5.50;;;21.90;81.10;;;;;;5030638;28;20212;-77
2021/09/15 00:18:14;;;;;;;8.73;5.63;;;21.90;80.90;;;;;;5029959;28;20247;-77
2021/09/15 00:20:39;;;;;;;8.23;5.30;;;21.90;81.20;;;;;;5030762;28;20189;-77
2021/09/15 00:23:05;;;;;;;7.80;5.50;;;21.90;81.90;;;;;;5031403;28;20718;-77
2021/09/15 00:25:31;;;;;;;10.20;6.43;;;21.90;82.10;;;;;;5031124;28;20269;-76
2021/09/15 00:27:57;;;;;;;7.63;5.60;;;21.90;82.50;;;;;;5030546;28;20292;-77
2021/09/15 00:30:23;;;;;;;10.53;6.23;;;21.80;82.40;;;;;;5027119;28;20196;-77
2021/09/15 00:32:49;;;;;;;7.60;5.80;;;21.90;82.40;;;;;;5024812;28;20435;-75
2021/09/15 00:35:14;;;;;;;12.00;6.30;;;21.90;82.70;;;;;;5029536;28;20219;-75
2021/09/15 00:37:40;;;;;;;10.63;6.13;;;21.90;82.70;;;;;;5029369;28;20553;-76
2021/09/15 00:40:07;;;;;;;11.30;6.53;;;21.90;83.00;;;;;;5029612;28;20238;-77
2021/09/15 00:42:33;;;;;;;9.07;6.23;;;21.90;83.00;;;;;;5029715;28;20706;-77
2021/09/15 00:44:59;;;;;;;8.37;5.73;;;21.60;83.40;;;;;;5028123;28;20445;-77
2021/09/15 00:47:24;;;;;;;11.33;6.90;;;21.70;83.70;;;;;;5023769;28;20431;-76
2021/09/15 00:49:51;;;;;;;8.87;5.90;;;21.70;83.40;;;;;;5027498;28;20196;-78
2021/09/15 00:52:18;;;;;;;8.87;6.50;;;21.60;83.60;;;;;;5028663;28;20195;-77
2021/09/15 00:54:44;;;;;;;8.50;6.20;;;21.70;83.60;;;;;;5029267;28;20442;-76
2021/09/15 00:57:10;;;;;;;10.53;6.73;;;21.80;83.30;;;;;;5029194;28;20474;-75
2021/09/15 00:59:35;;;;;;;7.57;6.23;;;21.70;83.30;;;;;;5029435;28;20510;-76
2021/09/15 01:02:01;;;;;;;7.10;5.90;;;21.60;84.00;;;;;;5032456;28;20196;-75
2021/09/15 01:04:27;;;;;;;10.77;6.20;;;21.60;84.60;;;;;;5033190;28;20188;-77
2021/09/15 01:06:53;;;;;;;10.23;6.93;;;21.60;84.70;;;;;;5030741;28;20457;-76
2021/09/15 01:09:20;;;;;;;12.10;6.30;;;21.60;84.60;;;;;;5033954;28;20276;-77
2021/09/15 01:11:48;;;;;;;10.33;6.10;;;21.60;84.70;;;;;;5035005;28;20430;-75
2021/09/15 01:14:14;;;;;;;9.27;6.53;;;21.50;85.30;;;;;;5039257;28;20435;-76
2021/09/15 01:16:49;;;;;;;8.30;6.60;;;21.50;85.60;;;;;;5043348;28;20562;-76
2021/09/15 01:19:15;;;;;;;10.80;6.60;;;21.50;85.60;;;;;;5043410;28;20449;-76
2021/09/15 01:21:41;;;;;;;11.77;6.43;;;21.40;85.90;;;;;;5035535;28;20430;-76
2021/09/15 01:24:07;;;;;;;13.47;6.90;;;21.50;85.90;;;;;;5038601;28;20774;-76
2021/09/15 01:26:34;;;;;;;12.03;6.70;;;21.50;86.00;;;;;;5032960;28;20207;-75
2021/09/15 01:28:59;;;;;;;12.43;7.80;;;21.50;86.20;;;;;;5036585;28;20191;-76
2021/09/15 01:31:25;;;;;;;12.13;7.47;;;21.40;86.60;;;;;;5033315;28;20510;-77
2021/09/15 01:33:51;;;;;;;11.27;6.93;;;21.30;86.90;;;;;;5042165;28;20191;-76
2021/09/15 01:36:17;;;;;;;11.77;7.37;;;21.40;86.90;;;;;;5053282;28;20252;-76
2021/09/15 01:38:42;;;;;;;14.90;8.20;;;21.30;87.10;;;;;;5029321;28;20245;-76
2021/09/15 01:41:08;;;;;;;10.77;6.80;;;21.30;87.10;;;;;;5032943;28;20197;-76
2021/09/15 01:43:34;;;;;;;11.27;6.80;;;21.40;87.10;;;;;;5025965;28;20213;-76
2021/09/15 01:45:59;;;;;;;10.50;6.77;;;21.40;87.10;;;;;;5032772;28;20261;-76
2021/09/15 01:48:25;;;;;;;11.90;6.90;;;21.30;87.10;;;;;;5032161;28;20197;-76
2021/09/15 01:50:51;;;;;;;10.57;7.73;;;21.30;87.30;;;;;;5032150;28;20195;-75
2021/09/15 01:53:16;;;;;;;13.50;7.37;;;21.30;87.40;;;;;;5025811;28;20229;-76
2021/09/15 01:55:42;;;;;;;10.23;7.33;;;21.20;87.30;;;;;;5033503;28;20223;-76
2021/09/15 01:58:10;;;;;;;9.40;6.90;;;21.30;87.10;;;;;;5031973;28;20225;-76
2021/09/15 02:00:38;;;;;;;14.80;7.67;;;21.30;87.10;;;;;;5026921;28;20650;-76
2021/09/15 02:03:04;;;;;;;11.50;7.37;;;21.40;86.90;;;;;;5032922;28;20423;-75
2021/09/15 02:05:30;;;;;;;11.53;7.50;;;21.40;86.60;;;;;;5032736;28;21232;-76
2021/09/15 02:07:56;;;;;;;13.03;7.47;;;21.40;86.50;;;;;;5032429;28;20229;-76
2021/09/15 02:10:22;;;;;;;13.90;7.03;;;21.40;86.50;;;;;;5040737;28;20442;-76
2021/09/15 02:12:47;;;;;;;14.00;7.60;;;21.40;86.50;;;;;;5038164;28;20434;-76
2021/09/15 02:15:14;;;;;;;9.93;7.10;;;21.50;86.20;;;;;;5032860;28;20211;-76
2021/09/15 02:17:40;;;;;;;9.07;6.33;;;21.50;86.30;;;;;;5026942;28;20342;-75
2021/09/15 02:20:08;;;;;;;12.40;7.80;;;21.60;86.00;;;;;;5032754;28;20805;-77
2021/09/15 02:22:34;;;;;;;15.03;8.17;;;21.60;85.90;;;;;;5024758;28;20429;-76
2021/09/15 02:25:00;;;;;;;11.13;7.47;;;21.50;85.90;;;;;;5027971;28;20538;-76
2021/09/15 02:27:26;;;;;;;13.20;8.00;;;21.50;86.00;;;;;;5012036;28;20194;-77
2021/09/15 02:29:51;;;;;;;13.43;7.30;;;21.50;86.00;;;;;;5032956;28;20433;-77
2021/09/15 02:32:17;;;;;;;9.77;6.97;;;21.60;85.60;;;;;;5022943;28;20446;-76
2021/09/15 02:34:46;;;;;;;13.07;7.20;;;21.60;85.60;;;;;;5032822;28;20198;-77
2021/09/15 02:37:11;;;;;;;10.53;7.30;;;21.60;85.20;;;;;;5031839;28;20215;-76
2021/09/15 02:39:37;;;;;;;11.47;7.20;;;21.60;84.90;;;;;;5031177;28;20441;-76
2021/09/15 02:42:03;;;;;;;10.33;6.93;;;21.60;84.60;;;;;;5032698;28;20211;-76
2021/09/15 02:44:29;;;;;;;11.40;7.40;;;21.60;84.60;;;;;;5033444;28;20275;-76
2021/09/15 02:46:56;;;;;;;9.60;6.93;;;21.70;84.70;;;;;;5050533;28;20214;-77
2021/09/15 02:49:27;;;;;;;13.27;7.63;;;21.60;84.70;;;;;;5049857;28;20319;-77
2021/09/15 02:51:54;;;;;;;11.57;7.30;;;21.60;85.00;;;;;;5046510;28;20426;-75
2021/09/15 02:54:21;;;;;;;13.73;8.13;;;21.50;85.30;;;;;;5049413;28;20453;-78
2021/09/15 02:56:47;;;;;;;11.13;7.40;;;21.50;85.30;;;;;;5041674;28;20473;-78
2021/09/15 02:59:13;;;;;;;13.83;7.47;;;21.50;85.30;;;;;;5043760;28;20244;-77
2021/09/15 03:01:39;;;;;;;9.93;7.43;;;21.50;85.20;;;;;;5045680;28;20196;-78
2021/09/15 03:04:04;;;;;;;10.37;7.17;;;21.50;85.30;;;;;;5041570;28;20427;-79
2021/09/15 03:06:30;;;;;;;8.77;7.30;;;21.50;85.50;;;;;;5038043;28;20282;-81
2021/09/15 03:08:56;;;;;;;10.70;6.97;;;21.50;85.60;;;;;;5038018;28;20217;-79
2021/09/15 03:11:22;;;;;;;11.57;6.83;;;21.30;85.90;;;;;;5035380;28;20434;-77
2021/09/15 03:13:48;;;;;;;12.10;7.23;;;21.30;85.90;;;;;;5035503;28;20190;-76
2021/09/15 03:16:14;;;;;;;13.87;7.23;;;21.30;86.00;;;;;;5031879;28;20217;-77
2021/09/15 03:18:40;;;;;;;12.90;7.40;;;21.50;85.50;;;;;;5035839;28;20637;-76
2021/09/15 03:21:06;;;;;;;13.10;7.00;;;21.50;85.30;;;;;;5033808;28;20545;-79
2021/09/15 03:23:31;;;;;;;11.03;7.60;;;21.50;85.50;;;;;;5031620;28;20302;-80
2021/09/15 03:25:57;;;;;;;10.67;6.83;;;21.50;85.50;;;;;;5037271;28;20211;-78
2021/09/15 03:28:23;;;;;;;11.80;7.90;;;21.40;85.30;;;;;;5043712;28;20195;-76
2021/09/15 03:30:49;;;;;;;11.83;7.20;;;21.40;85.50;;;;;;5044278;28;20212;-78
2021/09/15 03:33:15;;;;;;;11.33;7.30;;;21.50;85.30;;;;;;5040378;28;20191;-76
2021/09/15 03:35:41;;;;;;;14.17;7.07;;;21.50;85.00;;;;;;5035771;28;20446;-76
2021/09/15 03:38:06;;;;;;;10.10;7.70;;;21.60;84.90;;;;;;5038117;28;20350;-78
2021/09/15 03:40:38;;;;;;;10.13;6.60;;;21.60;84.70;;;;;;5037397;28;20282;-78
2021/09/15 03:43:05;;;;;;;10.53;7.30;;;21.60;84.90;;;;;;5033916;28;20552;-74
2021/09/15 03:45:31;;;;;;;9.80;6.17;;;21.50;84.90;;;;;;5037151;28;20438;-74
2021/09/15 03:47:56;;;;;;;9.33;7.13;;;21.50;85.50;;;;;;5032817;28;20834;-75
2021/09/15 03:50:22;;;;;;;13.23;7.40;;;21.50;85.60;;;;;;5033015;28;20396;-75
2021/09/15 03:52:48;;;;;;;13.27;7.47;;;21.50;85.70;;;;;;5031737;28;20203;-76
2021/09/15 03:55:14;;;;;;;10.80;7.10;;;21.50;85.50;;;;;;5032271;28;20294;-74
2021/09/15 03:57:39;;;;;;;10.70;7.33;;;21.50;85.50;;;;;;5032792;28;20213;-74
2021/09/15 04:00:06;;;;;;;11.57;7.23;;;21.50;85.30;;;;;;5021886;28;20841;-75
2021/09/15 04:02:31;;;;;;;13.10;7.57;;;21.40;85.70;;;;;;5030619;28;20176;-74
2021/09/15 04:04:57;;;;;;;7.73;6.50;;;21.40;85.70;;;;;;5034000;28;20429;-75
2021/09/15 04:07:23;;;;;;;12.83;7.70;;;21.40;85.90;;;;;;5035333;28;20191;-75
2021/09/15 04:09:49;;;;;;;10.20;7.90;;;21.50;86.20;;;;;;5041685;28;20211;-74
2021/09/15 04:12:14;;;;;;;11.57;6.73;;;21.60;86.60;;;;;;5035366;28;20187;-74
2021/09/15 04:14:41;;;;;;;12.93;7.40;;;21.50;86.60;;;;;;5039126;28;20620;-73
2021/09/15 04:17:07;;;;;;;8.80;6.97;;;21.60;86.50;;;;;;5047161;28;20214;-76
2021/09/15 04:19:33;;;;;;;12.27;7.20;;;21.50;86.00;;;;;;5039627;28;20795;-74
2021/09/15 04:21:59;;;;;;;12.40;8.00;;;21.50;86.60;;;;;;5038886;28;20445;-75
2021/09/15 04:32:34;;;;;;;9.47;6.73;;;21.20;88.00;;;;;;5026516;28;20423;-74
2021/09/15 04:34:59;;;;;;;15.13;7.70;;;21.10;88.40;;;;;;5034184;28;20429;-75
2021/09/15 04:37:25;;;;;;;12.10;7.17;;;21.00;88.40;;;;;;5035051;28;20471;-77
2021/09/15 04:39:51;;;;;;;13.23;7.90;;;20.90;88.70;;;;;;5035327;28;20240;-75
2021/09/15 04:42:16;;;;;;;11.23;7.30;;;20.90;88.70;;;;;;5036034;28;20190;-74
2021/09/15 04:44:42;;;;;;;14.67;7.60;;;20.90;88.90;;;;;;5040882;28;20718;-76
2021/09/15 04:47:08;;;;;;;11.43;7.47;;;20.90;88.90;;;;;;5040001;28;20216;-77
2021/09/15 04:49:34;;;;;;;9.80;7.17;;;20.90;88.90;;;;;;5040706;28;20555;-75
2021/09/15 04:52:00;;;;;;;10.90;6.83;;;21.00;88.70;;;;;;5039859;28;20187;-76
2021/09/15 04:54:25;;;;;;;11.40;7.80;;;21.00;88.70;;;;;;5037526;28;20436;-76
2021/09/15 04:56:51;;;;;;;12.73;7.77;;;21.10;89.20;;;;;;5041219;28;20336;-75
2021/09/15 04:59:17;;;;;;;12.60;7.50;;;21.10;88.40;;;;;;5041625;28;20198;-76
2021/09/15 05:01:43;;;;;;;11.80;6.70;;;21.00;89.00;;;;;;5034108;28;20208;-77
2021/09/15 05:04:08;;;;;;;12.00;7.30;;;21.00;89.20;;;;;;5032282;28;20190;-76
2021/09/15 05:06:34;;;;;;;9.70;6.80;;;20.90;89.90;;;;;;5031548;28;20218;-75
2021/09/15 05:09:00;;;;;;;14.73;8.70;;;20.90;90.10;;;;;;5033247;28;20187;-75
2021/09/15 05:11:25;;;;;;;14.87;8.10;;;20.80;90.60;;;;;;5035787;28;20548;-77
2021/09/15 05:13:51;;;;;;;14.37;8.17;;;20.70;91.10;;;;;;5045441;28;20266;-75
2021/09/15 05:16:17;;;;;;;12.43;8.50;;;20.60;91.60;;;;;;5043271;28;20279;-75
2021/09/15 05:18:43;;;;;;;12.57;8.00;;;20.50;91.90;;;;;;5045406;28;20187;-75
2021/09/15 05:21:08;;;;;;;9.83;6.80;;;20.40;92.30;;;;;;5053071;28;20242;-75
2021/09/15 05:23:34;;;;;;;10.63;7.13;;;20.40;92.60;;;;;;5047446;28;20177;-75
2021/09/15 05:26:00;;;;;;;11.83;7.30;;;20.30;92.80;;;;;;5033073;28;20202;-75
2021/09/15 05:28:26;;;;;;;11.83;7.10;;;20.20;93.00;;;;;;5033705;28;20292;-77
2021/09/15 05:30:51;;;;;;;11.23;7.30;;;20.20;93.00;;;;;;5033103;28;20424;-75
2021/09/15 05:33:17;;;;;;;17.03;7.50;;;20.20;93.40;;;;;;5038494;28;20249;-75
2021/09/15 05:35:43;;;;;;;14.40;7.97;;;20.10;93.50;;;;;;5048384;28;20215;-76
2021/09/15 05:38:09;;;;;;;12.03;7.70;;;20.10;93.70;;;;;;5050600;28;20198;-75
2021/09/15 05:40:35;;;;;;;11.60;7.37;;;20.00;93.90;;;;;;5040804;28;20636;-75
2021/09/15 05:43:01;;;;;;;11.60;7.50;;;20.00;94.10;;;;;;5032252;28;20200;-75
2021/09/15 05:45:27;;;;;;;15.70;8.20;;;20.00;94.40;;;;;;5032853;28;20428;-75
2021/09/15 05:47:53;;;;;;;14.10;7.53;;;20.00;94.60;;;;;;5035288;28;20652;-76
2021/09/15 05:50:18;;;;;;;11.93;7.13;;;19.90;94.70;;;;;;5035700;28;20182;-76
2021/09/15 05:52:44;;;;;;;11.30;7.60;;;20.00;94.70;;;;;;5035158;28;20187;-78
2021/09/15 05:55:10;;;;;;;13.63;7.43;;;20.10;94.80;;;;;;5034546;28;20213;-76
2021/09/15 05:57:37;;;;;;;10.33;6.70;;;20.10;95.00;;;;;;5034806;28;20237;-76
2021/09/15 06:00:04;;;;;;;11.90;7.97;;;20.10;94.70;;;;;;5033516;28;20554;-77
2021/09/15 06:02:30;;;;;;;12.30;7.63;;;20.10;94.40;;;;;;5033403;28;20427;-76
2021/09/15 06:04:56;;;;;;;14.20;8.40;;;20.10;94.60;;;;;;5034883;28;20420;-75
2021/09/15 06:07:21;;;;;;;12.97;7.90;;;20.10;94.60;;;;;;5034301;28;20873;-76
2021/09/15 06:09:47;;;;;;;11.47;7.37;;;20.10;94.90;;;;;;5034535;28;20213;-74
2021/09/15 06:12:13;;;;;;;18.13;8.10;;;20.20;95.10;;;;;;5034148;28;20877;-76
2021/09/15 06:14:39;;;;;;;12.00;7.90;;;20.10;94.90;;;;;;5036992;28;20234;-75
2021/09/15 06:17:06;;;;;;;9.60;7.40;;;20.10;94.70;;;;;;5032595;28;20209;-75
2021/09/15 06:19:32;;;;;;;15.70;8.53;;;20.00;94.80;;;;;;5034479;28;20188;-77
2021/09/15 06:21:58;;;;;;;13.20;7.00;;;19.90;95.20;;;;;;5039016;28;20413;-76
2021/09/15 06:24:23;;;;;;;13.07;7.43;;;19.80;95.60;;;;;;5043153;28;20182;-76
2021/09/15 06:26:51;;;;;;;13.00;8.10;;;19.80;95.70;;;;;;5035049;28;20213;-76
2021/09/15 06:29:17;;;;;;;14.57;8.47;;;19.70;96.00;;;;;;5034469;28;20221;-78
2021/09/15 06:31:43;;;;;;;13.97;7.40;;;19.60;96.20;;;;;;5035116;28;20826;-76
2021/09/15 06:34:09;;;;;;;11.53;8.57;;;19.60;96.30;;;;;;5033331;28;20185;-75
2021/09/15 06:36:35;;;;;;;12.17;8.40;;;19.70;96.30;;;;;;5034663;28;20478;-75
2021/09/15 06:39:02;;;;;;;12.20;7.73;;;19.70;96.20;;;;;;5032013;28;20605;-77
2021/09/15 06:41:28;;;;;;;10.97;6.53;;;19.80;95.70;;;;;;5035802;28;20446;-79
2021/09/15 06:43:54;;;;;;;12.80;7.67;;;19.90;95.10;;;;;;5036086;28;20524;-76
2021/09/15 06:46:19;;;;;;;15.00;8.07;;;19.90;95.10;;;;;;5034530;28;20543;-75
2021/09/15 06:48:45;;;;;;;13.97;7.83;;;19.90;95.10;;;;;;5034601;28;20209;-76
2021/09/15 06:51:11;;;;;;;15.13;7.20;;;19.90;94.90;;;;;;5038322;28;20180;-76
2021/09/15 06:53:36;;;;;;;13.20;7.17;;;19.90;94.50;;;;;;5034952;28;20213;-77
2021/09/15 06:56:02;;;;;;;9.40;6.57;;;20.00;94.60;;;;;;5040767;28;20225;-74
2021/09/15 06:58:28;;;;;;;12.27;7.10;;;20.00;94.40;;;;;;5047050;28;20213;-76
2021/09/15 07:00:54;;;;;;;15.47;7.50;;;20.00;94.10;;;;;;5034158;28;20417;-76
2021/09/15 07:03:20;;;;;;;10.07;6.90;;;20.10;94.20;;;;;;5033383;28;20503;-78
2021/09/15 07:05:45;;;;;;;13.57;8.30;;;20.10;94.30;;;;;;5033519;28;20614;-77
2021/09/15 07:08:11;;;;;;;12.30;7.40;;;20.10;94.50;;;;;;5031820;28;20256;-75
2021/09/15 07:10:39;;;;;;;15.70;7.27;;;20.10;94.40;;;;;;5033246;28;20265;-75
2021/09/15 07:13:06;;;;;;;11.40;7.43;;;20.20;94.10;;;;;;5027375;28;20183;-79
2021/09/15 07:15:31;;;;;;;13.80;7.33;;;20.20;93.90;;;;;;5037249;28;20444;-78
2021/09/15 07:17:57;;;;;;;11.33;7.30;;;20.30;94.00;;;;;;5034477;28;20469;-79
2021/09/15 07:20:23;;;;;;;12.80;7.80;;;20.30;94.20;;;;;;5035830;28;20185;-78
2021/09/15 07:22:49;;;;;;;12.53;7.50;;;20.40;94.10;;;;;;5039398;28;20435;-79
2021/09/15 07:25:15;;;;;;;10.63;7.10;;;20.40;93.70;;;;;;5039139;28;20210;-77
2021/09/15 07:27:41;;;;;;;12.80;8.57;;;20.40;93.80;;;;;;5040727;28;20195;-76
2021/09/15 07:30:08;;;;;;;12.00;7.73;;;20.40;94.00;;;;;;5035310;28;20524;-77
2021/09/15 07:32:34;;;;;;;13.80;8.57;;;20.50;94.00;;;;;;5041103;28;20451;-79
2021/09/15 07:35:00;;;;;;;16.13;8.20;;;20.50;94.00;;;;;;5035164;28;20427;-79
2021/09/15 07:37:26;;;;;;;11.73;7.70;;;20.50;94.10;;;;;;5041206;28;20267;-78
2021/09/15 07:39:53;;;;;;;16.97;7.90;;;20.60;94.10;;;;;;5037469;28;20449;-79
2021/09/15 07:42:19;;;;;;;12.33;7.40;;;20.50;94.00;;;;;;5036681;28;20192;-81
2021/09/15 07:44:45;;;;;;;10.70;6.80;;;20.60;93.60;;;;;;5037107;28;20416;-78
2021/09/15 07:47:15;;;;;;;11.83;7.30;;;20.60;93.60;;;;;;5037396;28;20643;-76
2021/09/15 07:49:42;;;;;;;8.13;5.40;;;20.50;93.60;;;;;;5039653;28;20551;-78
2021/09/15 07:52:08;;;;;;;10.73;6.37;;;20.50;92.40;;;;;;5032884;28;20446;-79
2021/09/15 07:54:34;;;;;;;6.90;4.53;;;20.50;92.60;;;;;;5038569;28;20429;-80
2021/09/15 07:56:59;;;;;;;10.13;5.63;;;20.60;91.50;;;;;;5037246;28;20213;-80
2021/09/15 07:59:25;;;;;;;12.13;5.37;;;20.50;91.20;;;;;;5035494;28;20186;-79
2021/09/15 08:01:51;;;;;;;9.67;5.00;;;20.60;91.70;;;;;;5033688;28;20190;-79
2021/09/15 08:04:17;;;;;;;12.00;5.20;;;20.60;91.50;;;;;;5034221;28;20668;-78
2021/09/15 08:06:42;;;;;;;10.27;5.23;;;20.70;91.60;;;;;;5029659;28;20218;-80
2021/09/15 08:09:08;;;;;;;8.30;5.10;;;20.70;91.60;;;;;;5032766;28;20193;-79
2021/09/15 08:11:34;;;;;;;8.67;4.97;;;20.70;91.50;;;;;;5034890;28;20189;-77
2021/09/15 08:14:00;;;;;;;8.63;5.10;;;20.60;91.70;;;;;;5027001;28;20929;-78
2021/09/15 08:16:25;;;;;;;9.23;5.27;;;20.70;91.60;;;;;;5036212;28;20210;-82
2021/09/15 08:18:52;;;;;;;11.13;4.87;;;20.70;91.40;;;;;;5034666;28;20517;-80
2021/09/15 08:21:17;;;;;;;9.57;4.97;;;20.70;91.40;;;;;;5037397;28;20264;-77
2021/09/15 08:23:43;;;;;;;9.07;5.60;;;20.80;91.50;;;;;;5040773;28;20947;-77
2021/09/15 08:26:09;;;;;;;13.50;5.50;;;20.70;91.50;;;;;;5034318;28;20281;-79
2021/09/15 08:28:36;;;;;;;11.30;5.53;;;20.70;91.60;;;;;;5031654;28;20697;-79
2021/09/15 08:31:06;;;;;;;8.40;5.20;;;20.70;91.70;;;;;;5023012;28;20191;-79
2021/09/15 08:33:32;;;;;;;9.83;5.73;;;20.60;91.90;;;;;;5027261;28;20451;-78
2021/09/15 08:35:58;;;;;;;11.20;5.77;;;20.60;92.00;;;;;;5032359;28;20465;-78
2021/09/15 08:38:23;;;;;;;10.93;6.00;;;20.60;92.10;;;;;;5036211;28;20465;-79
2021/09/15 08:40:53;;;;;;;11.53;6.77;;;20.60;92.10;;;;;;5030544;28;20252;-80
2021/09/15 08:43:20;;;;;;;9.17;5.87;;;20.70;92.00;;;;;;5034437;28;20186;-79
2021/09/15 08:45:45;;;;;;;9.07;5.90;;;20.70;92.10;;;;;;5031747;28;20961;-78
2021/09/15 08:48:15;;;;;;;13.30;6.40;;;20.70;92.60;;;;;;5033229;28;20430;-79
2021/09/15 08:50:41;;;;;;;11.93;6.50;;;20.50;93.20;;;;;;5031547;28;20189;-79
2021/09/15 08:53:07;;;;;;;18.60;6.23;;;20.30;94.00;;;;;;5034623;28;20430;-77
2021/09/15 08:55:33;;;;;;;10.03;6.50;;;20.20;94.40;;;;;;5028812;28;20448;-77
2021/09/15 08:58:00;;;;;;;11.47;6.97;;;20.20;94.90;;;;;;5034493;28;20464;-79
2021/09/15 09:00:25;;;;;;;11.70;6.77;;;20.10;94.80;;;;;;5034049;28;20506;-77
2021/09/15 09:02:52;;;;;;;12.90;7.17;;;20.00;95.00;;;;;;5034027;28;20460;-79
2021/09/15 09:05:18;;;;;;;11.10;6.90;;;19.90;95.10;;;;;;5026396;28;20352;-78
2021/09/15 09:07:44;;;;;;;14.40;7.30;;;20.00;94.80;;;;;;5031864;28;20939;-77
2021/09/15 09:10:12;;;;;;;13.33;6.60;;;20.00;94.90;;;;;;5031763;28;20454;-79
2021/09/15 09:12:40;;;;;;;11.37;6.27;;;19.90;94.40;;;;;;5032079;28;20295;-81
2021/09/15 09:15:21;;;;;;;8.53;5.70;;;19.90;94.40;;;;;;5030684;28;20420;-80
2021/09/15 09:17:47;;;;;;;8.87;5.70;;;19.90;94.20;;;;;;5028542;28;20517;-75
2021/09/15 09:20:35;;;;;;;9.20;5.77;;;20.00;94.30;;;;;;5030258;28;20867;-76
2021/09/15 09:23:15;;;;;;;10.73;5.67;;;20.00;93.70;;;;;;5030554;28;20461;-76
2021/09/15 09:25:45;;;;;;;9.90;5.53;;;19.90;93.30;;;;;;5029938;28;20447;-78
2021/09/15 09:28:21;;;;;;;9.07;5.00;;;19.80;93.80;;;;;;5035557;28;20940;-75
2021/09/15 09:30:49;;;;;;;8.30;4.80;;;19.70;92.30;;;;;;5034805;28;20457;-76
2021/09/15 09:33:15;;;;;;;10.40;5.50;;;19.70;92.40;;;;;;5033975;28;20437;-76
2021/09/15 09:35:45;;;;;;;7.77;4.60;;;19.60;92.60;;;;;;5033429;28;20465;-75
2021/09/15 09:38:16;;;;;;;11.10;4.87;;;19.50;93.10;;;;;;5036304;28;20455;-76
2021/09/15 09:41:03;;;;;;;8.00;4.87;;;19.50;93.00;;;;;;5039304;28;20486;-74
2021/09/15 09:43:30;;;;;;;9.30;4.80;;;19.60;92.80;;;;;;5032053;28;20533;-77
2021/09/15 09:45:58;;;;;;;9.77;4.83;;;19.60;92.60;;;;;;5035361;28;20534;-77
2021/09/15 09:48:38;;;;;;;8.57;5.30;;;19.70;92.30;;;;;;5036183;28;20423;-76
2021/09/15 09:51:20;;;;;;;9.23;5.57;;;19.80;92.60;;;;;;5037788;28;20950;-75
2021/09/15 09:53:46;;;;;;;8.60;4.57;;;20.00;92.20;;;;;;5042417;28;20428;-75
2021/09/15 09:56:12;;;;;;;7.83;5.00;;;20.10;92.00;;;;;;5041202;28;20443;-77
2021/09/15 09:58:43;;;;;;;6.50;4.70;;;20.20;91.80;;;;;;5045029;28;20208;-77
2021/09/15 10:01:16;;;;;;;10.20;5.90;;;20.30;91.60;;;;;;5044766;28;20406;-74
2021/09/15 10:03:43;;;;;;;9.50;5.20;;;20.40;91.50;;;;;;5044478;28;20416;-75
2021/09/15 10:06:09;;;;;;;10.37;5.70;;;20.50;90.80;;;;;;5043628;28;20450;-75
2021/09/15 10:08:35;;;;;;;10.00;5.30;;;20.60;90.30;;;;;;5046134;28;20888;-75
2021/09/15 10:11:01;;;;;;;9.03;4.37;;;20.60;90.30;;;;;;5042433;28;20430;-74
2021/09/15 10:13:27;;;;;;;8.27;5.17;;;20.70;90.20;;;;;;5042862;28;20421;-78
2021/09/15 10:16:02;;;;;;;10.30;5.20;;;20.70;89.90;;;;;;5043226;28;20444;-75
2021/09/15 10:18:28;;;;;;;9.90;5.57;;;20.80;89.00;;;;;;5043240;28;20201;-74
2021/09/15 10:20:56;;;;;;;9.23;4.93;;;20.90;89.20;;;;;;5042296;28;20489;-76
2021/09/15 10:23:36;;;;;;;7.50;4.93;;;21.00;89.70;;;;;;5040876;28;20183;-76
2021/09/15 10:26:31;;;;;;;5.77;4.30;;;20.90;89.90;;;;;;5039456;28;20433;-76
2021/09/15 10:29:27;;;;;;;8.80;4.93;;;21.00;89.70;;;;;;5039379;28;20512;-76
2021/09/15 10:31:56;;;;;;;8.27;4.90;;;21.10;89.70;;;;;;5024937;28;20406;-75
2021/09/15 10:34:40;;;;;;;9.63;5.17;;;21.20;89.50;;;;;;5043111;28;20425;-78
2021/09/15 10:37:12;;;;;;;10.70;5.93;;;21.30;89.70;;;;;;5040114;28;20477;-74
2021/09/15 10:39:54;;;;;;;10.10;5.77;;;21.30;89.70;;;;;;5042166;28;20424;-75
2021/09/15 10:42:47;;;;;;;7.43;5.27;;;21.30;89.20;;;;;;5040234;28;20429;-76
2021/09/15 10:45:14;;;;;;;9.90;5.40;;;21.40;89.50;;;;;;5035740;28;20457;-77
2021/09/15 10:47:49;;;;;;;8.30;4.93;;;21.40;89.60;;;;;;5033467;28;20437;-76
2021/09/15 10:50:30;;;;;;;9.30;5.90;;;21.40;90.20;;;;;;5033290;28;20929;-76
2021/09/15 10:53:07;;;;;;;7.63;5.07;;;21.40;90.10;;;;;;5033953;28;20436;-75
2021/09/15 10:55:56;;;;;;;10.37;6.00;;;21.20;90.50;;;;;;5033822;28;20449;-77
2021/09/15 10:58:43;;;;;;;9.73;5.27;;;21.20;90.60;;;;;;5033089;28;20464;-77
2021/09/15 11:01:11;;;;;;;10.97;6.23;;;21.20;90.70;;;;;;5033772;28;20848;-76
2021/09/15 11:03:57;;;;;;;12.83;5.63;;;21.20;90.90;;;;;;5033765;28;20417;-76
2021/09/15 11:06:23;;;;;;;13.23;5.77;;;21.30;90.30;;;;;;5033242;28;21025;-76
2021/09/15 11:08:51;;;;;;;8.90;5.30;;;21.50;90.10;;;;;;5033903;28;20927;-76
2021/09/15 11:11:19;;;;;;;9.60;5.50;;;21.60;89.70;;;;;;5033573;28;21009;-76
2021/09/15 11:13:49;;;;;;;11.63;5.00;;;21.80;88.90;;;;;;5033070;28;20422;-78
2021/09/15 11:16:35;;;;;;;13.03;5.60;;;22.00;88.70;;;;;;5031886;28;20443;-77
2021/09/15 11:19:09;;;;;;;9.90;4.80;;;22.00;87.70;;;;;;5033914;28;21008;-76
2021/09/15 11:21:53;;;;;;;9.60;5.63;;;22.10;88.10;;;;;;5027695;28;20422;-78
2021/09/15 11:24:21;;;;;;;11.73;5.70;;;22.20;88.10;;;;;;5035234;28;20514;-76
2021/09/15 11:26:59;;;;;;;7.93;5.43;;;22.20;87.60;;;;;;5035760;28;20433;-75
2021/09/15 11:29:55;;;;;;;11.70;5.67;;;22.30;88.10;;;;;;5035543;28;20413;-76
2021/09/15 11:32:23;;;;;;;10.80;5.93;;;22.40;87.30;;;;;;5016871;28;20431;-76
2021/09/15 11:34:53;;;;;;;9.27;5.10;;;22.40;87.70;;;;;;5010516;28;20883;-76
2021/09/15 11:37:24;;;;;;;9.60;5.43;;;22.50;87.70;;;;;;5011698;28;21044;-76
2021/09/15 11:39:53;;;;;;;9.60;5.30;;;22.60;87.10;;;;;;5011104;28;20431;-77
2021/09/15 11:42:23;;;;;;;8.63;5.10;;;22.70;86.80;;;;;;5015744;28;20460;-77
2021/09/15 11:44:49;;;;;;;8.50;5.47;;;22.70;86.80;;;;;;5011649;28;20506;-78
2021/09/15 11:47:58;;;;;;;9.20;5.97;;;22.70;86.50;;;;;;5003135;28;20936;-81
2021/09/15 11:50:29;;;;;;;10.17;5.83;;;22.50;86.80;;;;;;4974561;28;20210;-77
2021/09/15 11:53:04;;;;;;;9.80;6.27;;;22.30;88.30;;;;;;4971251;28;20420;-79
2021/09/15 11:55:32;;;;;;;12.90;6.20;;;22.10;88.30;;;;;;4971005;28;20450;-76
2021/09/15 11:58:02;;;;;;;11.97;5.40;;;22.00;88.90;;;;;;4984391;28;20602;-77
2021/09/15 12:00:29;;;;;;;8.70;4.50;;;21.90;89.00;;;;;;4961359;28;20426;-77
2021/09/15 12:02:59;;;;;;;8.40;5.70;;;21.80;88.60;;;;;;4967332;28;20472;-77
2021/09/15 12:05:25;;;;;;;12.30;6.57;;;21.80;89.20;;;;;;4971251;28;20501;-77
2021/09/15 12:07:51;;;;;;;9.33;5.90;;;21.80;89.00;;;;;;4978993;28;20460;-77
2021/09/15 12:10:18;;;;;;;10.83;5.83;;;21.90;88.90;;;;;;5001878;28;20433;-78
2021/09/15 12:12:44;;;;;;;10.00;6.10;;;21.90;88.30;;;;;;4993459;28;20482;-77
2021/09/15 12:15:10;;;;;;;8.80;6.17;;;21.80;88.90;;;;;;5009804;28;21012;-75
2021/09/15 12:17:37;;;;;;;12.97;5.90;;;21.90;88.90;;;;;;5009824;28;20549;-76
2021/09/15 12:20:05;;;;;;;7.10;5.60;;;21.90;88.40;;;;;;5012841;28;20427;-76
2021/09/15 12:22:33;;;;;;;14.17;5.50;;;22.00;88.40;;;;;;5025821;28;21129;-76
2021/09/15 12:25:07;;;;;;;7.37;5.50;;;22.00;88.40;;;;;;5031611;28;20520;-76
2021/09/15 12:27:34;;;;;;;10.03;5.90;;;21.90;88.60;;;;;;5031905;28;20423;-76
2021/09/15 12:30:12;;;;;;;11.00;6.20;;;21.90;88.70;;;;;;5032088;28;20921;-75
2021/09/15 12:32:39;;;;;;;13.43;6.27;;;22.00;88.00;;;;;;5023332;28;20522;-76
2021/09/15 12:35:06;;;;;;;6.70;5.20;;;21.90;88.30;;;;;;5031207;28;20921;-76
2021/09/15 12:37:38;;;;;;;15.30;5.87;;;21.90;88.30;;;;;;5032495;28;21189;-75
2021/09/15 12:40:05;;;;;;;8.93;5.73;;;21.80;88.90;;;;;;5030591;28;20427;-78
2021/09/15 12:42:33;;;;;;;8.20;5.50;;;21.90;88.90;;;;;;5030528;28;20463;-75
2021/09/15 12:45:12;;;;;;;8.50;5.73;;;22.00;88.10;;;;;;5024961;28;20426;-76
2021/09/15 12:47:44;;;;;;;8.40;5.30;;;22.00;88.30;;;;;;5031827;28;20836;-77
2021/09/15 12:50:17;;;;;;;10.57;5.57;;;22.20;87.10;;;;;;5032092;28;20435;-75
2021/09/15 12:52:45;;;;;;;9.07;5.83;;;22.20;87.10;;;;;;5030619;28;20504;-75